createdAt,value
2016-11-13T11:10:52.746Z,68.63
2016-11-13T11:11:18.294Z,68.44
2016-11-13T11:11:43.852Z,68.63
2016-11-13T11:12:09.426Z,68.73
2016-11-13T11:12:35.894Z,68.91
2016-11-13T11:13:01.458Z,68.63
2016-11-13T11:13:29.281Z,68.73
2016-11-13T11:13:54.847Z,68.53
2016-11-13T11:14:20.456Z,68.82
2016-11-13T11:14:46.022Z,68.05
2016-11-13T11:15:11.611Z,68.05
2016-11-13T11:15:37.212Z,68.05
2016-11-13T11:16:02.857Z,68.24
2016-11-13T11:16:28.386Z,68.05
2016-11-13T11:16:53.960Z,68.05
2016-11-13T11:17:19.547Z,67.86
2016-11-13T11:17:45.124Z,67.96
2016-11-13T11:18:10.677Z,67.61
2016-11-13T11:18:36.592Z,67.61
2016-11-13T11:19:02.304Z,67.7
2016-11-13T11:19:27.897Z,67.13
2016-11-13T11:19:53.449Z,67.22
2016-11-13T11:20:19.982Z,67.03
2016-11-13T11:20:45.449Z,67.03
2016-11-13T11:21:11.015Z,67.03
2016-11-13T11:21:36.589Z,67.13
2016-11-13T11:22:02.163Z,66.74
2016-11-13T11:22:27.776Z,67.13
2016-11-13T11:22:53.337Z,66.93
2016-11-13T11:23:18.902Z,66.84
2016-11-13T11:23:44.840Z,66.64
2016-11-13T11:24:10.253Z,66.74
2016-11-13T11:24:35.811Z,66.16
2016-11-13T11:25:01.456Z,66.46
2016-11-13T11:25:26.996Z,66.46
2016-11-13T11:25:52.571Z,67.13
2016-11-13T11:26:18.133Z,67.13
2016-11-13T11:26:43.836Z,66.64
2016-11-13T11:27:09.395Z,66.84
2016-11-13T11:27:35.052Z,66.74
2016-11-13T11:28:41.328Z,66.74
2016-11-13T11:29:06.888Z,66.84
2016-11-13T11:29:32.430Z,66.84
2016-11-13T11:29:58.090Z,66.74
2016-11-13T11:30:23.662Z,66.36
2016-11-13T11:30:49.251Z,66.64
2016-11-13T11:31:14.829Z,66.55
2016-11-13T11:31:40.408Z,66.46
2016-11-13T11:32:06.109Z,66.46
2016-11-13T11:32:31.677Z,66.46
2016-11-13T11:32:57.307Z,66.46
2016-11-13T11:33:22.976Z,66.55
2016-11-13T11:33:48.528Z,66.26
2016-11-13T11:35:50.947Z,66.16
2016-11-13T11:36:16.517Z,66.36
2016-11-13T11:36:42.104Z,65.97
2016-11-13T11:37:07.672Z,66.16
2016-11-13T11:38:07.061Z,66.07
2016-11-13T11:38:32.667Z,66.07
2016-11-13T11:38:58.230Z,65.97
2016-11-13T11:39:23.999Z,65.97
2016-11-13T11:39:49.573Z,65.88
2016-11-13T11:40:15.140Z,65.97
2016-11-13T11:40:40.847Z,66.16
2016-11-13T11:41:06.436Z,66.26
2016-11-13T11:41:32.961Z,66.16
2016-11-13T11:41:58.581Z,66.36
2016-11-13T11:42:24.151Z,66.46
2016-11-13T11:42:50.294Z,66.16
2016-11-13T11:43:15.586Z,66.36
2016-11-13T11:43:41.128Z,65.78
2016-11-13T11:44:07.580Z,66.16
2016-11-13T11:44:33.140Z,65.78
2016-11-13T11:44:58.709Z,65.78
2016-11-13T11:45:24.310Z,65.78
2016-11-13T11:45:49.907Z,65.91
2016-11-13T11:46:15.519Z,65.78
2016-11-13T11:47:08.717Z,65.69
2016-11-13T11:47:34.408Z,66.16
2016-11-13T11:47:59.971Z,65.78
2016-11-13T11:48:25.548Z,66.07
2016-11-13T11:48:51.267Z,65.97
2016-11-13T11:49:16.811Z,66.2
2016-11-13T11:49:42.382Z,65.97
2016-11-13T11:50:07.947Z,65.78
2016-11-13T11:50:33.539Z,66.07
2016-11-13T11:50:59.126Z,65.88
2016-11-13T11:51:24.710Z,65.78
2016-11-13T11:51:50.390Z,65.59
2016-11-13T11:52:15.999Z,65.49
2016-11-13T11:53:08.971Z,65.78
2016-11-13T11:53:34.527Z,65.78
2016-11-13T11:54:32.608Z,65.88
2016-11-13T11:54:58.164Z,65.69
2016-11-13T11:55:23.774Z,65.78
2016-11-13T11:55:49.318Z,65.78
2016-11-13T11:56:14.927Z,65.88
2016-11-13T11:56:40.523Z,65.88
2016-11-13T11:59:17.934Z,66.07
2016-11-13T11:59:43.670Z,65.78
2016-11-13T12:00:09.424Z,65.88
2016-11-13T12:00:34.998Z,65.88
2016-11-13T12:01:00.559Z,65.88
2016-11-13T12:01:26.147Z,65.69
2016-11-13T12:01:51.702Z,65.78
2016-11-13T12:02:17.292Z,65.97
2016-11-13T12:02:43.177Z,65.69
2016-11-13T12:03:08.759Z,65.69
2016-11-13T12:03:34.321Z,65.78
2016-11-13T12:03:59.913Z,65.59
2016-11-13T12:04:25.558Z,65.78
2016-11-13T12:04:51.116Z,65.69
2016-11-13T12:05:16.712Z,65.88
2016-11-13T12:05:42.389Z,65.69
2016-11-13T12:06:07.957Z,65.88
2016-11-13T12:06:33.534Z,65.88
2016-11-13T12:06:59.167Z,65.97
2016-11-13T12:07:24.733Z,65.88
2016-11-13T12:07:50.339Z,65.88
2016-11-13T12:08:15.937Z,66.36
2016-11-13T12:09:14.166Z,66.07
2016-11-13T12:09:39.753Z,66.16
2016-11-13T12:10:05.317Z,66.26
2016-11-13T12:10:30.890Z,66.36
2016-11-13T12:10:56.488Z,66.07
2016-11-13T12:11:22.207Z,66.26
2016-11-13T12:11:49.255Z,66.16
2016-11-13T12:12:14.856Z,66.26
2016-11-13T12:12:40.481Z,66.16
2016-11-13T12:13:06.114Z,66.36
2016-11-13T12:13:31.692Z,65.88
2016-11-13T12:13:57.301Z,66.07
2016-11-13T12:14:22.848Z,65.78
2016-11-13T12:14:48.403Z,65.88
2016-11-13T12:15:14.775Z,66.07
2016-11-13T12:17:04.350Z,66.07
2016-11-13T12:17:29.981Z,66.07
2016-11-13T12:17:55.634Z,66.07
2016-11-13T12:18:21.338Z,66.07
2016-11-13T12:19:24.162Z,65.97
2016-11-13T12:20:43.020Z,65.78
2016-11-13T12:21:08.581Z,65.97
2016-11-13T12:21:34.215Z,66.07
2016-11-13T12:21:59.914Z,66.16
2016-11-13T12:22:25.539Z,65.88
2016-11-13T12:22:51.144Z,65.97
2016-11-13T12:23:16.720Z,66.07
2016-11-13T12:23:42.344Z,65.88
2016-11-13T12:24:07.915Z,65.88
2016-11-13T12:24:33.498Z,65.97
2016-11-13T12:24:59.050Z,65.97
2016-11-13T12:26:11.387Z,65.78
2016-11-13T12:26:36.977Z,65.88
2016-11-13T12:27:02.547Z,65.78
2016-11-13T12:27:28.192Z,65.97
2016-11-13T12:28:36.627Z,66.36
2016-11-13T12:29:02.229Z,66.16
2016-11-13T12:29:27.798Z,66.16
2016-11-13T12:29:53.350Z,66.26
2016-11-13T12:30:18.994Z,66.36
2016-11-13T12:30:44.635Z,65.78
2016-11-13T12:31:10.208Z,66.36
2016-11-13T12:31:35.794Z,66.26
2016-11-13T12:32:01.382Z,66.16
2016-11-13T12:32:26.971Z,66.36
2016-11-13T12:32:52.596Z,66.07
2016-11-13T12:33:18.184Z,66.26
2016-11-13T12:33:43.749Z,65.97
2016-11-13T12:34:09.427Z,65.78
2016-11-13T12:34:35.006Z,66.26
2016-11-13T12:35:00.564Z,65.78
2016-11-13T12:35:26.215Z,65.88
2016-11-13T12:35:51.841Z,65.88
2016-11-13T12:36:23.137Z,65.88
2016-11-13T12:37:22.132Z,65.88
2016-11-13T12:38:15.114Z,65.97
2016-11-13T12:39:31.211Z,66.07
2016-11-13T12:40:02.659Z,66.07
2016-11-13T12:41:16.980Z,65.88
2016-11-13T12:42:09.657Z,65.97
2016-11-13T12:42:35.211Z,65.88
2016-11-13T12:43:00.785Z,65.97
2016-11-13T12:44:14.242Z,66.07
2016-11-13T12:44:39.826Z,65.88
2016-11-13T12:45:05.409Z,66.07
2016-11-13T12:45:30.974Z,65.59
2016-11-13T12:45:56.957Z,65.78
2016-11-13T12:46:22.304Z,65.69
2016-11-13T12:46:47.880Z,65.59
2016-11-13T12:47:13.457Z,65.69
2016-11-13T12:47:39.055Z,65.59
2016-11-13T12:48:04.623Z,65.78
2016-11-13T12:48:30.186Z,65.88
2016-11-13T12:48:55.720Z,65.78
2016-11-13T12:49:21.787Z,66.07
2016-11-13T12:49:49.463Z,65.69
2016-11-13T12:50:15.035Z,65.69
2016-11-13T12:50:42.582Z,65.88
2016-11-13T12:51:47.977Z,65.78
2016-11-13T12:52:13.479Z,65.78
2016-11-13T12:52:39.070Z,65.97
2016-11-13T12:53:04.638Z,65.69
2016-11-13T12:53:30.348Z,66.07
2016-11-13T12:53:59.149Z,65.88
2016-11-13T12:55:05.033Z,65.78
2016-11-13T12:55:30.633Z,65.88
2016-11-13T12:55:56.298Z,65.97
2016-11-13T12:56:21.864Z,65.88
2016-11-13T12:56:47.439Z,65.59
2016-11-13T12:57:13.015Z,65.78
2016-11-13T12:57:38.580Z,65.97
2016-11-13T12:58:04.205Z,65.69
2016-11-13T12:58:29.848Z,65.97
2016-11-13T12:58:55.416Z,65.69
2016-11-13T12:59:20.965Z,65.88
2016-11-13T13:00:34.606Z,65.49
2016-11-13T13:01:01.167Z,65.69
2016-11-13T13:01:26.749Z,66.07
2016-11-13T13:01:52.359Z,65.78
2016-11-13T13:02:17.958Z,65.59
2016-11-13T13:02:43.513Z,65.78
2016-11-13T13:03:09.061Z,65.78
2016-11-13T13:03:34.619Z,65.78
2016-11-13T13:04:02.427Z,65.69
2016-11-13T13:04:27.885Z,65.78
2016-11-13T13:04:57.107Z,65.59
2016-11-13T13:05:22.675Z,65.88
2016-11-13T13:05:48.211Z,65.88
2016-11-13T13:06:13.778Z,66.07
2016-11-13T13:06:39.496Z,65.88
2016-11-13T13:07:05.771Z,65.59
2016-11-13T13:07:31.348Z,66.07
2016-11-13T13:07:56.909Z,65.59
2016-11-13T13:08:22.496Z,65.97
2016-11-13T13:08:48.115Z,65.78
2016-11-13T13:09:13.688Z,65.88
2016-11-13T13:09:39.349Z,65.88
2016-11-13T13:10:04.917Z,66.16
2016-11-13T13:10:30.554Z,65.97
2016-11-13T13:10:56.117Z,65.69
2016-11-13T13:11:21.817Z,65.88
2016-11-13T13:11:47.386Z,65.78
2016-11-13T13:12:15.839Z,65.78
2016-11-13T13:12:43.397Z,65.78
2016-11-13T13:13:42.926Z,65.78
2016-11-13T13:14:08.498Z,66.16
2016-11-13T13:14:35.528Z,66.16
2016-11-13T13:15:03.424Z,66.36
2016-11-13T13:15:29.063Z,66.36
2016-11-13T13:15:54.653Z,66.16
2016-11-13T13:16:20.388Z,65.97
2016-11-13T13:16:45.956Z,65.97
2016-11-13T13:17:15.134Z,65.78
2016-11-13T13:17:40.508Z,65.88
2016-11-13T13:18:06.101Z,66.07
2016-11-13T13:18:31.692Z,65.88
2016-11-13T13:18:57.309Z,65.97
2016-11-13T13:19:22.875Z,65.88
2016-11-13T13:19:48.437Z,66.16
2016-11-13T13:20:13.992Z,66.26
2016-11-13T13:20:39.564Z,66.16
2016-11-13T13:21:05.154Z,66.36
2016-11-13T13:21:30.710Z,66.26
2016-11-13T13:21:56.273Z,66.36
2016-11-13T13:23:10.939Z,65.97
2016-11-13T13:23:36.526Z,66.36
2016-11-13T13:24:02.089Z,66.36
2016-11-13T13:24:27.655Z,66.74
2016-11-13T13:24:53.279Z,66.84
2016-11-13T13:25:18.830Z,66.64
2016-11-13T13:25:44.406Z,66.71
2016-11-13T13:26:10.134Z,66.8
2016-11-13T13:26:35.688Z,66.8
2016-11-13T13:27:01.254Z,67.13
2016-11-13T13:27:26.853Z,67.03
2016-11-13T13:27:52.390Z,66.36
2016-11-13T13:28:18.037Z,66.52
2016-11-13T13:28:43.596Z,66.36
2016-11-13T13:29:09.135Z,66.93
2016-11-13T13:29:34.708Z,66.64
2016-11-13T13:30:00.442Z,66.61
2016-11-13T13:30:26.025Z,66.8
2016-11-13T13:30:51.608Z,67
2016-11-13T13:31:17.153Z,66.8
2016-11-13T13:31:42.723Z,66.71
2016-11-13T13:32:08.328Z,66.8
2016-11-13T13:32:34.027Z,66.9
2016-11-13T13:32:59.582Z,66.9
2016-11-13T13:33:25.142Z,66.8
2016-11-13T13:33:50.686Z,67
2016-11-13T13:34:16.307Z,66.61
2016-11-13T13:34:41.861Z,66.8
2016-11-13T13:35:07.401Z,66.9
2016-11-13T13:35:32.965Z,66.8
2016-11-13T13:35:58.605Z,66.8
2016-11-13T13:36:24.154Z,66.71
2016-11-13T13:36:49.704Z,67.09
2016-11-13T13:37:15.252Z,67
2016-11-13T13:37:41.002Z,67.09
2016-11-13T13:38:06.539Z,66.9
2016-11-13T13:38:32.099Z,67.57
2016-11-13T13:38:57.663Z,67.67
2016-11-13T13:39:23.257Z,67.47
2016-11-13T13:39:48.808Z,67.67
2016-11-13T13:40:14.434Z,67.47
2016-11-13T13:40:40.023Z,67.47
2016-11-13T13:41:05.605Z,67.57
2016-11-13T13:41:31.184Z,67.67
2016-11-13T13:41:56.749Z,67.57
2016-11-13T13:42:22.305Z,67.67
2016-11-13T13:42:47.851Z,67.57
2016-11-13T13:43:13.454Z,67.57
2016-11-13T13:43:39.021Z,67.38
2016-11-13T13:44:04.583Z,67.57
2016-11-13T13:44:30.245Z,67.76
2016-11-13T13:44:55.818Z,67.96
2016-11-13T13:45:21.764Z,67.96
2016-11-13T13:45:47.080Z,67.57
2016-11-13T13:46:12.650Z,67.96
2016-11-13T13:46:38.194Z,67.96
2016-11-13T13:47:03.778Z,67.96
2016-11-13T13:47:29.426Z,68.05
2016-11-13T13:47:54.976Z,68.05
2016-11-13T13:48:20.509Z,68.05
2016-11-13T13:48:46.085Z,68.05
2016-11-13T13:49:11.642Z,68.15
2016-11-13T13:49:37.199Z,68.15
2016-11-13T13:50:02.820Z,68.05
2016-11-13T13:50:28.376Z,67.96
2016-11-13T13:50:53.943Z,67.96
2016-11-13T13:51:19.507Z,67.96
2016-11-13T13:51:45.028Z,67.86
2016-11-13T13:52:10.566Z,67.86
2016-11-13T13:52:36.116Z,67.96
2016-11-13T13:53:01.673Z,67.96
2016-11-13T13:53:27.345Z,67.96
2016-11-13T13:53:53.002Z,67.86
2016-11-13T13:54:18.569Z,67.47
2016-11-13T13:54:44.162Z,67.38
2016-11-13T13:55:09.736Z,67.47
2016-11-13T13:55:35.277Z,67.47
2016-11-13T13:56:00.820Z,67.47
2016-11-13T13:56:26.581Z,67.67
2016-11-13T13:56:52.126Z,67.57
2016-11-13T13:57:17.689Z,67.86
2016-11-13T13:57:43.356Z,67.76
2016-11-13T13:58:08.945Z,67.67
2016-11-13T13:58:34.482Z,67.47
2016-11-13T13:59:00.075Z,67.76
2016-11-13T13:59:25.618Z,67.86
2016-11-13T13:59:51.387Z,67.76
2016-11-13T14:00:17.001Z,67.76
2016-11-13T14:00:42.576Z,67.57
2016-11-13T14:01:08.112Z,67.47
2016-11-13T14:01:33.698Z,67.76
2016-11-13T14:01:59.302Z,67.47
2016-11-13T14:02:24.955Z,67.7
2016-11-13T14:02:50.509Z,67.61
2016-11-13T14:03:16.220Z,67.67
2016-11-13T14:03:41.759Z,67.32
2016-11-13T14:04:07.336Z,67.61
2016-11-13T14:04:32.891Z,67.8
2016-11-13T14:04:58.594Z,67.8
2016-11-13T14:05:24.158Z,67.8
2016-11-13T14:05:49.699Z,67.8
2016-11-13T14:06:15.258Z,67.61
2016-11-13T14:06:40.816Z,67.61
2016-11-13T14:07:06.365Z,66.93
2016-11-13T14:07:31.935Z,66.93
2016-11-13T14:07:57.500Z,67.13
2016-11-13T14:08:23.079Z,66.84
2016-11-13T14:08:48.638Z,66.84
2016-11-13T14:09:14.226Z,67.13
2016-11-13T14:09:39.776Z,67.13
2016-11-13T14:10:05.331Z,67.32
2016-11-13T14:10:30.905Z,66.84
2016-11-13T14:10:56.484Z,67.03
2016-11-13T14:11:22.152Z,67.41
2016-11-13T14:11:47.725Z,66.74
2016-11-13T14:12:13.358Z,66.93
2016-11-13T14:12:38.978Z,66.93
2016-11-13T14:13:04.523Z,66.93
2016-11-13T14:13:30.200Z,66.93
2016-11-13T14:13:55.760Z,66.74
2016-11-13T14:14:21.327Z,66.84
2016-11-13T14:14:46.962Z,67.03
2016-11-13T14:15:12.568Z,66.74
2016-11-13T14:15:38.207Z,66.84
2016-11-13T14:16:03.857Z,66.93
2016-11-13T14:16:29.419Z,66.93
2016-11-13T14:16:55.047Z,66.93
2016-11-13T14:17:20.684Z,66.74
2016-11-13T14:17:46.263Z,66.93
2016-11-13T14:18:11.824Z,66.74
2016-11-13T14:18:37.416Z,66.84
2016-11-13T14:19:03.004Z,67.13
2016-11-13T14:19:28.592Z,66.84
2016-11-13T14:19:54.162Z,66.93
2016-11-13T14:20:19.740Z,67.03
2016-11-13T14:20:45.431Z,66.93
2016-11-13T14:21:10.994Z,67.22
2016-11-13T14:21:36.569Z,66.84
2016-11-13T14:22:02.232Z,67.13
2016-11-13T14:22:27.833Z,67.13
2016-11-13T14:22:53.437Z,66.55
2016-11-13T14:23:18.998Z,66.74
2016-11-13T14:23:44.632Z,66.46
2016-11-13T14:24:10.193Z,66.64
2016-11-13T14:24:35.738Z,66.64
2016-11-13T14:25:01.415Z,67.13
2016-11-13T14:25:27.007Z,67.13
2016-11-13T14:25:52.551Z,66.84
2016-11-13T14:26:18.155Z,66.74
2016-11-13T14:26:43.817Z,67.13
2016-11-13T14:27:09.420Z,66.64
2016-11-13T14:27:34.983Z,66.77
2016-11-13T14:28:00.581Z,66.74
2016-11-13T14:28:26.218Z,66.64
2016-11-13T14:28:51.805Z,66.64
2016-11-13T14:29:17.410Z,66.64
2016-11-13T14:29:43.009Z,67.13
2016-11-13T14:30:08.574Z,67.22
2016-11-13T14:30:34.143Z,66.64
2016-11-13T14:30:59.710Z,66.55
2016-11-13T14:31:25.294Z,66.55
2016-11-13T14:31:50.852Z,66.26
2016-11-13T14:32:16.457Z,66.55
2016-11-13T14:32:42.044Z,66.55
2016-11-13T14:33:07.636Z,66.3
2016-11-13T14:33:33.203Z,66.26
2016-11-13T14:34:06.109Z,66.46
2016-11-13T14:34:59.372Z,66.49
2016-11-13T14:35:24.922Z,66.46
2016-11-13T14:35:50.519Z,67.25
2016-11-13T14:36:16.070Z,66.39
2016-11-13T14:36:41.837Z,66.97
2016-11-13T14:37:07.537Z,66.84
2016-11-13T14:37:33.116Z,66.46
2016-11-13T14:37:58.800Z,66.3
2016-11-13T14:38:24.451Z,66.58
2016-11-13T14:38:50.073Z,66.68
2016-11-13T14:39:15.634Z,66.39
2016-11-13T14:39:41.259Z,66.3
2016-11-13T14:40:06.840Z,65.91
2016-11-13T14:40:32.421Z,66
2016-11-13T14:41:45.989Z,66
2016-11-13T14:42:11.553Z,65.81
2016-11-13T14:42:37.124Z,65.81
2016-11-13T14:43:02.781Z,65.62
2016-11-13T14:43:28.341Z,65.23
2016-11-13T14:43:53.920Z,65.23
2016-11-13T14:44:19.520Z,65.23
2016-11-13T14:44:45.087Z,65.43
2016-11-13T14:45:10.696Z,65.53
2016-11-13T14:45:36.379Z,65.05
2016-11-13T14:46:01.982Z,65.27
2016-11-13T14:46:27.642Z,64.98
2016-11-13T14:46:53.175Z,64.85
2016-11-13T14:47:18.828Z,64.69
2016-11-13T14:47:44.392Z,64.79
2016-11-13T14:48:09.974Z,64.89
2016-11-13T14:48:37.475Z,64.89
2016-11-13T14:49:58.944Z,64.4
2016-11-13T14:50:52.941Z,64.5
2016-11-13T14:51:18.512Z,64.4
2016-11-13T14:51:44.092Z,64.69
2016-11-13T14:52:09.688Z,64.89
2016-11-13T14:52:35.244Z,64.69
2016-11-13T14:53:00.919Z,64.69
2016-11-13T14:53:26.481Z,64.6
2016-11-13T14:53:52.055Z,64.6
2016-11-13T14:54:17.943Z,64.69
2016-11-13T14:54:43.504Z,64.89
2016-11-13T14:55:09.086Z,64.79
2016-11-13T14:56:12.333Z,64.66
2016-11-13T14:56:37.906Z,64.79
2016-11-13T14:57:03.474Z,64.76
2016-11-13T14:57:29.012Z,64.66
2016-11-13T14:58:37.386Z,64.37
2016-11-13T14:59:02.968Z,64.66
2016-11-13T14:59:28.560Z,64.28
2016-11-13T14:59:54.146Z,64.28
2016-11-13T15:00:19.842Z,64.66
2016-11-13T15:00:45.410Z,64.95
2016-11-13T15:01:15.805Z,64.66
2016-11-13T15:01:49.779Z,64.85
2016-11-13T15:02:17.800Z,65.23
2016-11-13T15:02:43.378Z,65.05
2016-11-13T15:03:08.955Z,65.23
2016-11-13T15:03:34.506Z,65.23
2016-11-13T15:04:00.062Z,65.05
2016-11-13T15:04:25.623Z,65.11
2016-11-13T15:04:51.175Z,65.33
2016-11-13T15:05:16.784Z,65.72
2016-11-13T15:05:42.332Z,65.97
2016-11-13T15:06:07.998Z,65.78
2016-11-13T15:06:33.519Z,66.16
2016-11-13T15:06:59.213Z,65.88
2016-11-13T15:07:58.592Z,65.78
2016-11-13T15:08:55.253Z,66.07
2016-11-13T15:09:27.197Z,66.46
2016-11-13T15:10:28.822Z,66.46
2016-11-13T15:11:22.991Z,66.64
2016-11-13T15:11:48.585Z,66.64
2016-11-13T15:12:17.289Z,66.46
2016-11-13T15:12:42.919Z,66.55
2016-11-13T15:13:16.400Z,67.09
2016-11-13T15:13:47.009Z,66.93
2016-11-13T15:14:12.722Z,67.09
2016-11-13T15:14:38.320Z,66.93
2016-11-13T15:15:03.978Z,66.9
2016-11-13T15:15:29.629Z,67
2016-11-13T15:15:55.253Z,66.9
2016-11-13T15:16:20.808Z,66.8
2016-11-13T15:16:46.498Z,67.19
2016-11-13T15:17:12.063Z,67
2016-11-13T15:17:37.751Z,67.09
2016-11-13T15:18:03.348Z,67.29
2016-11-13T15:18:28.916Z,67.86
2016-11-13T15:18:54.473Z,67.76
2016-11-13T15:19:20.068Z,67.67
2016-11-13T15:19:45.626Z,67.67
2016-11-13T15:20:11.210Z,67.38
2016-11-13T15:20:36.773Z,67.96
2016-11-13T15:21:02.524Z,68.15
2016-11-13T15:21:28.117Z,68.24
2016-11-13T15:21:53.661Z,68.05
2016-11-13T15:22:21.031Z,68.34
2016-11-13T15:23:25.758Z,68.63
2016-11-13T15:23:51.372Z,68.34
2016-11-13T15:24:17.811Z,68.15
2016-11-13T15:24:43.106Z,68.05
2016-11-13T15:25:08.771Z,68.24
2016-11-13T15:25:34.344Z,68.5
2016-11-13T15:25:59.911Z,68.3
2016-11-13T15:26:25.455Z,68.3
2016-11-13T15:26:50.999Z,68.59
2016-11-13T15:27:16.574Z,68.88
2016-11-13T15:27:42.194Z,68.69
2016-11-13T15:28:11.356Z,68.69
2016-11-13T15:29:10.932Z,68.5
2016-11-13T15:29:36.500Z,68.59
2016-11-13T15:30:02.089Z,68.4
2016-11-13T15:30:27.719Z,68.79
2016-11-13T15:30:53.313Z,68.79
2016-11-13T15:31:18.882Z,69.65
2016-11-13T15:31:44.466Z,68.69
2016-11-13T15:32:10.056Z,69.26
2016-11-13T15:32:35.603Z,69.17
2016-11-13T15:33:01.215Z,69.65
2016-11-13T15:33:26.815Z,69.56
2016-11-13T15:33:52.385Z,69.46
2016-11-13T15:34:18.167Z,69.36
2016-11-13T15:34:43.729Z,69.84
2016-11-13T15:35:09.303Z,69.74
2016-11-13T15:35:34.853Z,69.65
2016-11-13T15:36:00.470Z,69.46
2016-11-13T15:36:26.052Z,69.42
2016-11-13T15:36:51.627Z,69.74
2016-11-13T15:37:17.235Z,70
2016-11-13T15:37:42.777Z,69.42
2016-11-13T15:38:08.332Z,70
2016-11-13T15:38:33.892Z,69.71
2016-11-13T15:38:59.480Z,69.9
2016-11-13T15:39:25.031Z,69.81
2016-11-13T15:39:50.608Z,69.81
2016-11-13T15:40:16.177Z,69.81
2016-11-13T15:40:41.759Z,69.9
2016-11-13T15:41:07.333Z,70
2016-11-13T15:41:32.914Z,69.52
2016-11-13T15:41:58.513Z,69.81
2016-11-13T15:42:24.060Z,70
2016-11-13T15:43:32.480Z,69.62
2016-11-13T15:43:58.079Z,70.29
2016-11-13T15:44:23.640Z,70.19
2016-11-13T15:44:49.221Z,70.19
2016-11-13T15:45:14.790Z,70.57
2016-11-13T15:45:40.375Z,70.38
2016-11-13T15:46:05.936Z,70.09
2016-11-13T15:46:31.575Z,70
2016-11-13T15:46:57.113Z,69.9
2016-11-13T15:47:22.683Z,70.29
2016-11-13T15:47:48.237Z,70.86
2016-11-13T15:48:13.792Z,70.67
2016-11-13T15:48:39.349Z,70.57
2016-11-13T15:49:04.933Z,70.57
2016-11-13T15:49:30.522Z,70.38
2016-11-13T15:49:56.104Z,70.96
2016-11-13T15:50:21.690Z,70.96
2016-11-13T15:50:47.234Z,70.96
2016-11-13T15:51:13.167Z,70.86
2016-11-13T15:51:38.765Z,70.67
2016-11-13T15:52:04.335Z,70.86
2016-11-13T15:52:29.979Z,70.86
2016-11-13T15:52:55.548Z,70.86
2016-11-13T15:53:21.174Z,70.76
2016-11-13T15:53:46.743Z,71.05
2016-11-13T15:54:12.305Z,70.76
2016-11-13T15:54:37.874Z,70.96
2016-11-13T15:55:51.329Z,70.86
2016-11-13T15:56:16.976Z,70.67
2016-11-13T15:56:42.567Z,70.86
2016-11-13T15:57:08.128Z,71.05
2016-11-13T15:57:33.848Z,71.05
2016-11-13T15:57:59.411Z,71.15
2016-11-13T15:58:24.971Z,71.15
2016-11-13T15:58:50.585Z,70.76
2016-11-13T15:59:16.141Z,71.05
2016-11-13T15:59:41.709Z,70.86
2016-11-13T16:00:07.289Z,70.86
2016-11-13T16:00:32.887Z,71.05
2016-11-13T16:00:58.436Z,70.96
2016-11-13T16:01:23.990Z,70.86
2016-11-13T16:01:49.600Z,71.15
2016-11-13T16:02:15.183Z,71.15
2016-11-13T16:02:40.725Z,70.86
2016-11-13T16:03:06.349Z,70.96
2016-11-13T16:03:31.949Z,71.05
2016-11-13T16:03:57.496Z,70.86
2016-11-13T16:04:23.061Z,71.11
2016-11-13T16:04:48.659Z,71.02
2016-11-13T16:05:14.277Z,70.96
2016-11-13T16:06:55.203Z,71.21
2016-11-13T16:07:20.741Z,71.31
2016-11-13T16:07:46.323Z,70.96
2016-11-13T16:08:11.880Z,71.69
2016-11-13T16:08:37.506Z,71.44
2016-11-13T16:09:03.081Z,71.53
2016-11-13T16:09:28.651Z,71.53
2016-11-13T16:09:54.262Z,71.44
2016-11-13T16:10:19.877Z,71.5
2016-11-13T16:11:13.042Z,71.4
2016-11-13T16:11:38.791Z,71.31
2016-11-13T16:12:42.133Z,71.31
2016-11-13T16:13:07.781Z,71.21
2016-11-13T16:13:33.459Z,71.4
2016-11-13T16:13:59.042Z,71.31
2016-11-13T16:14:24.604Z,71.5
2016-11-13T16:14:50.188Z,71.4
2016-11-13T16:15:48.421Z,71.69
2016-11-13T16:16:13.974Z,71.4
2016-11-13T16:16:39.566Z,71.4
2016-11-13T16:17:05.123Z,71.4
2016-11-13T16:17:30.763Z,71.78
2016-11-13T16:17:56.325Z,71.5
2016-11-13T16:18:21.904Z,71.82
2016-11-13T16:18:47.525Z,71.69
2016-11-13T16:19:13.109Z,71.78
2016-11-13T16:19:38.676Z,71.69
2016-11-13T16:20:04.242Z,71.69
2016-11-13T16:20:29.812Z,71.78
2016-11-13T16:20:55.392Z,71.5
2016-11-13T16:21:20.937Z,71.78
2016-11-13T16:21:46.511Z,71.78
2016-11-13T16:22:12.079Z,71.69
2016-11-13T16:22:37.670Z,71.78
2016-11-13T16:23:03.272Z,71.88
2016-11-13T16:23:29.026Z,71.78
2016-11-13T16:23:54.597Z,71.88
2016-11-13T16:25:08.210Z,71.98
2016-11-13T16:25:33.984Z,71.98
2016-11-13T16:25:59.595Z,71.78
2016-11-13T16:26:52.619Z,71.69
2016-11-13T16:27:18.199Z,71.78
2016-11-13T16:27:43.933Z,71.78
2016-11-13T16:28:09.527Z,71.78
2016-11-13T16:28:35.190Z,71.78
2016-11-13T16:29:00.774Z,71.78
2016-11-13T16:29:26.322Z,71.78
2016-11-13T16:29:51.900Z,71.78
2016-11-13T16:30:17.472Z,71.78
2016-11-13T16:30:43.034Z,71.78
2016-11-13T16:31:08.597Z,71.88
2016-11-13T16:31:34.239Z,71.88
2016-11-13T16:31:59.819Z,71.78
2016-11-13T16:32:25.377Z,71.98
2016-11-13T16:32:50.958Z,71.69
2016-11-13T16:33:16.526Z,71.78
2016-11-13T16:33:42.096Z,71.98
2016-11-13T16:34:07.686Z,71.69
2016-11-13T16:34:33.245Z,71.78
2016-11-13T16:34:58.822Z,71.69
2016-11-13T16:35:24.381Z,71.88
2016-11-13T16:35:49.919Z,71.69
2016-11-13T16:36:15.513Z,71.69
2016-11-13T16:36:41.088Z,71.78
2016-11-13T16:37:06.680Z,71.78
2016-11-13T16:37:32.279Z,71.59
2016-11-13T16:37:57.910Z,72.07
2016-11-13T16:38:23.491Z,71.88
2016-11-13T16:38:49.097Z,71.59
2016-11-13T16:39:14.697Z,71.69
2016-11-13T16:39:40.336Z,71.69
2016-11-13T16:40:05.896Z,71.98
2016-11-13T16:40:31.522Z,71.98
2016-11-13T16:40:57.096Z,71.88
2016-11-13T16:41:22.654Z,71.59
2016-11-13T16:41:48.269Z,71.69
2016-11-13T16:42:13.982Z,71.98
2016-11-13T16:42:39.549Z,72.17
2016-11-13T16:43:05.128Z,72.17
2016-11-13T16:43:30.728Z,72.07
2016-11-13T16:43:56.301Z,72.07
2016-11-13T16:44:21.884Z,71.98
2016-11-13T16:44:47.453Z,71.98
2016-11-13T16:45:13.070Z,71.69
2016-11-13T16:45:38.630Z,72.36
2016-11-13T16:46:04.235Z,71.88
2016-11-13T16:46:29.826Z,71.88
2016-11-13T16:46:55.390Z,72.36
2016-11-13T16:47:20.954Z,72.55
2016-11-13T16:47:46.527Z,72.45
2016-11-13T16:48:12.115Z,72.45
2016-11-13T16:48:37.735Z,72.36
2016-11-13T16:49:03.353Z,72.27
2016-11-13T16:49:28.908Z,72.17
2016-11-13T16:49:54.443Z,72.45
2016-11-13T16:50:20.037Z,72.17
2016-11-13T16:50:45.629Z,72.36
2016-11-13T16:51:13.244Z,71.98
2016-11-13T16:51:37.439Z,72.17
2016-11-13T16:52:03.006Z,72.17
2016-11-13T16:52:29.041Z,72.27
2016-11-13T16:52:54.610Z,72.27
2016-11-13T16:53:20.176Z,71.98
2016-11-13T16:53:45.905Z,72.27
2016-11-13T16:54:11.457Z,71.98
2016-11-13T16:54:37.032Z,71.98
2016-11-13T16:55:02.592Z,72.84
2016-11-13T16:55:28.194Z,72.74
2016-11-13T16:55:53.764Z,72.84
2016-11-13T16:56:19.332Z,72.64
2016-11-13T16:56:44.903Z,72.74
2016-11-13T16:57:10.473Z,72.64
2016-11-13T16:57:36.031Z,72.94
2016-11-13T16:58:01.591Z,72.64
2016-11-13T16:58:27.159Z,72.55
2016-11-13T16:58:52.710Z,72.42
2016-11-13T16:59:18.297Z,72.64
2016-11-13T16:59:43.907Z,72.55
2016-11-13T17:00:09.642Z,72.42
2016-11-13T17:00:35.269Z,72.84
2016-11-13T17:01:00.882Z,72.36
2016-11-13T17:01:26.437Z,72.64
2016-11-13T17:01:52.040Z,72.8
2016-11-13T17:02:17.605Z,72.36
2016-11-13T17:02:43.216Z,72.52
2016-11-13T17:03:08.804Z,72.64
2016-11-13T17:03:34.484Z,72.84
2016-11-13T17:04:00.025Z,72.9
2016-11-13T17:04:25.716Z,72.8
2016-11-13T17:04:51.338Z,72.8
2016-11-13T17:05:16.940Z,72.71
2016-11-13T17:05:42.575Z,72.71
2016-11-13T17:06:08.197Z,72.74
2016-11-13T17:06:33.809Z,72.9
2016-11-13T17:06:59.464Z,72.8
2016-11-13T17:07:25.050Z,72.9
2016-11-13T17:07:50.631Z,72.8
2016-11-13T17:08:16.185Z,72.71
2016-11-13T17:08:41.770Z,72.71
2016-11-13T17:09:07.383Z,72.71
2016-11-13T17:09:32.945Z,72.71
2016-11-13T17:09:58.519Z,72.8
2016-11-13T17:10:24.087Z,72.9
2016-11-13T17:10:49.824Z,72.8
2016-11-13T17:11:15.392Z,73.19
2016-11-13T17:11:40.971Z,72.9
2016-11-13T17:12:06.543Z,73.09
2016-11-13T17:12:32.111Z,72.9
2016-11-13T17:12:57.700Z,73.09
2016-11-13T17:13:23.312Z,73.09
2016-11-13T17:13:49.081Z,72.71
2016-11-13T17:14:14.645Z,72.9
2016-11-13T17:14:40.227Z,73.19
2016-11-13T17:15:05.781Z,73.09